sensor_id;sensor_type;location;lat;lon;timestamp;P1;durP1;ratioP1;P2;durP2;ratioP2
40611;SDS011;26317;44.894;20.286;2022-08-06T00:00:19;20.58;;;8.38;;
40611;SDS011;26317;44.894;20.286;2022-08-06T00:02:48;14.80;;;7.75;;
40611;SDS011;26317;44.894;20.286;2022-08-06T00:05:16;14.48;;;8.07;;
40611;SDS011;26317;44.894;20.286;2022-08-06T00:07:45;16.83;;;8.07;;
40611;SDS011;26317;44.894;20.286;2022-08-06T00:10:15;11.55;;;8.88;;
40611;SDS011;26317;44.894;20.286;2022-08-06T00:12:45;17.05;;;9.18;;
40611;SDS011;26317;44.894;20.286;2022-08-06T00:15:16;13.75;;;8.10;;
40611;SDS011;26317;44.894;20.286;2022-08-06T00:17:46;19.73;;;8.55;;
40611;SDS011;26317;44.894;20.286;2022-08-06T00:20:15;13.05;;;8.40;;
40611;SDS011;26317;44.894;20.286;2022-08-06T00:22:44;15.10;;;9.40;;
40611;SDS011;26317;44.894;20.286;2022-08-06T00:25:14;11.77;;;8.77;;
40611;SDS011;26317;44.894;20.286;2022-08-06T00:27:43;16.80;;;7.95;;
40611;SDS011;26317;44.894;20.286;2022-08-06T00:30:12;9.38;;;7.75;;
40611;SDS011;26317;44.894;20.286;2022-08-06T00:32:43;14.35;;;8.93;;
40611;SDS011;26317;44.894;20.286;2022-08-06T00:35:12;13.18;;;8.15;;
40611;SDS011;26317;44.894;20.286;2022-08-06T00:37:41;14.90;;;8.93;;
40611;SDS011;26317;44.894;20.286;2022-08-06T00:40:10;21.13;;;10.07;;
40611;SDS011;26317;44.894;20.286;2022-08-06T00:42:39;12.93;;;8.95;;
40611;SDS011;26317;44.894;20.286;2022-08-06T00:45:09;18.15;;;9.50;;
40611;SDS011;26317;44.894;20.286;2022-08-06T00:47:38;10.45;;;8.60;;
40611;SDS011;26317;44.894;20.286;2022-08-06T00:50:09;17.77;;;9.40;;
40611;SDS011;26317;44.894;20.286;2022-08-06T00:52:38;17.52;;;9.02;;
40611;SDS011;26317;44.894;20.286;2022-08-06T00:57:37;16.08;;;10.50;;
40611;SDS011;26317;44.894;20.286;2022-08-06T01:00:07;14.05;;;10.30;;
40611;SDS011;26317;44.894;20.286;2022-08-06T01:02:37;13.35;;;10.88;;
40611;SDS011;26317;44.894;20.286;2022-08-06T01:05:06;15.02;;;11.23;;
40611;SDS011;26317;44.894;20.286;2022-08-06T01:07:38;15.20;;;11.02;;
40611;SDS011;26317;44.894;20.286;2022-08-06T01:10:07;18.00;;;12.57;;
40611;SDS011;26317;44.894;20.286;2022-08-06T01:12:36;19.38;;;13.07;;
40611;SDS011;26317;44.894;20.286;2022-08-06T01:15:06;20.27;;;12.77;;
40611;SDS011;26317;44.894;20.286;2022-08-06T01:17:37;20.98;;;12.60;;
40611;SDS011;26317;44.894;20.286;2022-08-06T01:20:15;16.63;;;12.65;;
40611;SDS011;26317;44.894;20.286;2022-08-06T01:22:59;28.13;;;14.50;;
40611;SDS011;26317;44.894;20.286;2022-08-06T01:25:47;33.40;;;16.45;;
40611;SDS011;26317;44.894;20.286;2022-08-06T01:28:33;20.80;;;15.02;;
40611;SDS011;26317;44.894;20.286;2022-08-06T01:31:06;27.08;;;16.08;;
40611;SDS011;26317;44.894;20.286;2022-08-06T01:33:39;22.70;;;15.45;;
40611;SDS011;26317;44.894;20.286;2022-08-06T01:36:11;28.20;;;15.57;;
40611;SDS011;26317;44.894;20.286;2022-08-06T01:38:46;20.63;;;14.73;;
40611;SDS011;26317;44.894;20.286;2022-08-06T01:41:20;20.45;;;14.18;;
40611;SDS011;26317;44.894;20.286;2022-08-06T01:44:09;20.52;;;14.27;;
40611;SDS011;26317;44.894;20.286;2022-08-06T01:46:40;24.45;;;13.57;;
40611;SDS011;26317;44.894;20.286;2022-08-06T01:49:13;26.13;;;13.63;;
40611;SDS011;26317;44.894;20.286;2022-08-06T01:51:47;23.38;;;13.75;;
40611;SDS011;26317;44.894;20.286;2022-08-06T01:54:19;28.42;;;14.07;;
40611;SDS011;26317;44.894;20.286;2022-08-06T01:56:51;25.75;;;13.93;;
40611;SDS011;26317;44.894;20.286;2022-08-06T01:59:26;18.80;;;13.18;;
40611;SDS011;26317;44.894;20.286;2022-08-06T02:05:28;16.10;;;11.70;;
40611;SDS011;26317;44.894;20.286;2022-08-06T02:07:58;14.27;;;12.20;;
40611;SDS011;26317;44.894;20.286;2022-08-06T02:10:28;22.33;;;12.95;;
40611;SDS011;26317;44.894;20.286;2022-08-06T02:13:00;15.90;;;11.43;;
40611;SDS011;26317;44.894;20.286;2022-08-06T02:15:33;16.40;;;11.90;;
40611;SDS011;26317;44.894;20.286;2022-08-06T02:18:04;20.58;;;12.73;;
40611;SDS011;26317;44.894;20.286;2022-08-06T02:20:38;22.15;;;15.18;;
40611;SDS011;26317;44.894;20.286;2022-08-06T02:23:11;21.33;;;16.00;;
40611;SDS011;26317;44.894;20.286;2022-08-06T02:25:45;19.20;;;16.05;;
40611;SDS011;26317;44.894;20.286;2022-08-06T02:28:15;19.70;;;15.93;;
40611;SDS011;26317;44.894;20.286;2022-08-06T02:30:49;21.75;;;15.23;;
40611;SDS011;26317;44.894;20.286;2022-08-06T02:33:21;25.25;;;15.55;;
40611;SDS011;26317;44.894;20.286;2022-08-06T02:35:52;25.33;;;15.55;;
40611;SDS011;26317;44.894;20.286;2022-08-06T02:38:26;18.45;;;13.75;;
40611;SDS011;26317;44.894;20.286;2022-08-06T02:41:00;21.15;;;14.40;;
40611;SDS011;26317;44.894;20.286;2022-08-06T02:43:34;23.85;;;14.35;;
40611;SDS011;26317;44.894;20.286;2022-08-06T02:46:10;21.35;;;14.77;;
40611;SDS011;26317;44.894;20.286;2022-08-06T02:48:44;21.13;;;14.70;;
40611;SDS011;26317;44.894;20.286;2022-08-06T02:51:18;21.13;;;14.80;;
40611;SDS011;26317;44.894;20.286;2022-08-06T02:53:57;21.45;;;13.80;;
40611;SDS011;26317;44.894;20.286;2022-08-06T02:56:30;21.20;;;15.45;;
40611;SDS011;26317;44.894;20.286;2022-08-06T03:01:34;20.35;;;15.73;;
40611;SDS011;26317;44.894;20.286;2022-08-06T03:04:06;23.52;;;16.02;;
40611;SDS011;26317;44.894;20.286;2022-08-06T03:06:37;20.23;;;15.55;;
40611;SDS011;26317;44.894;20.286;2022-08-06T03:09:09;18.80;;;15.77;;
40611;SDS011;26317;44.894;20.286;2022-08-06T03:11:41;19.08;;;14.90;;
40611;SDS011;26317;44.894;20.286;2022-08-06T03:14:11;20.20;;;16.17;;
40611;SDS011;26317;44.894;20.286;2022-08-06T03:16:45;21.23;;;15.93;;
40611;SDS011;26317;44.894;20.286;2022-08-06T03:19:17;21.05;;;16.73;;
40611;SDS011;26317;44.894;20.286;2022-08-06T03:21:48;22.23;;;16.65;;
40611;SDS011;26317;44.894;20.286;2022-08-06T03:24:19;21.08;;;15.85;;
40611;SDS011;26317;44.894;20.286;2022-08-06T03:26:50;22.45;;;15.52;;
40611;SDS011;26317;44.894;20.286;2022-08-06T03:29:20;20.65;;;15.18;;
40611;SDS011;26317;44.894;20.286;2022-08-06T03:31:53;23.05;;;15.77;;
40611;SDS011;26317;44.894;20.286;2022-08-06T03:34:23;24.20;;;17.20;;
40611;SDS011;26317;44.894;20.286;2022-08-06T03:36:53;18.73;;;16.00;;
40611;SDS011;26317;44.894;20.286;2022-08-06T03:39:24;23.88;;;16.30;;
40611;SDS011;26317;44.894;20.286;2022-08-06T03:41:55;18.08;;;15.77;;
40611;SDS011;26317;44.894;20.286;2022-08-06T03:44:24;19.42;;;16.48;;
40611;SDS011;26317;44.894;20.286;2022-08-06T03:46:57;22.67;;;16.00;;
40611;SDS011;26317;44.894;20.286;2022-08-06T03:49:30;22.27;;;15.75;;
40611;SDS011;26317;44.894;20.286;2022-08-06T03:52:04;22.95;;;15.45;;
40611;SDS011;26317;44.894;20.286;2022-08-06T03:54:38;23.80;;;15.73;;
40611;SDS011;26317;44.894;20.286;2022-08-06T03:57:09;20.52;;;15.85;;
40611;SDS011;26317;44.894;20.286;2022-08-06T03:59:41;19.85;;;15.02;;
40611;SDS011;26317;44.894;20.286;2022-08-06T04:02:15;25.73;;;15.40;;
40611;SDS011;26317;44.894;20.286;2022-08-06T04:04:45;20.02;;;15.57;;
40611;SDS011;26317;44.894;20.286;2022-08-06T04:07:15;24.25;;;16.08;;
40611;SDS011;26317;44.894;20.286;2022-08-06T04:09:45;18.07;;;15.00;;
40611;SDS011;26317;44.894;20.286;2022-08-06T04:12:14;24.15;;;16.77;;
40611;SDS011;26317;44.894;20.286;2022-08-06T04:14:44;24.17;;;16.65;;
40611;SDS011;26317;44.894;20.286;2022-08-06T04:17:15;25.92;;;16.65;;
40611;SDS011;26317;44.894;20.286;2022-08-06T04:19:45;19.67;;;15.23;;
40611;SDS011;26317;44.894;20.286;2022-08-06T04:22:16;21.20;;;16.10;;
40611;SDS011;26317;44.894;20.286;2022-08-06T04:24:45;19.58;;;15.85;;
40611;SDS011;26317;44.894;20.286;2022-08-06T04:27:14;22.67;;;15.55;;
40611;SDS011;26317;44.894;20.286;2022-08-06T04:29:44;23.42;;;16.52;;
40611;SDS011;26317;44.894;20.286;2022-08-06T04:32:18;24.48;;;15.82;;
40611;SDS011;26317;44.894;20.286;2022-08-06T04:34:48;23.27;;;15.55;;
40611;SDS011;26317;44.894;20.286;2022-08-06T04:37:20;19.38;;;15.10;;
40611;SDS011;26317;44.894;20.286;2022-08-06T04:39:49;22.80;;;15.68;;
40611;SDS011;26317;44.894;20.286;2022-08-06T04:42:18;22.95;;;16.25;;
40611;SDS011;26317;44.894;20.286;2022-08-06T04:44:48;17.63;;;14.45;;
40611;SDS011;26317;44.894;20.286;2022-08-06T04:47:21;17.58;;;14.23;;
40611;SDS011;26317;44.894;20.286;2022-08-06T04:49:51;22.52;;;15.57;;
40611;SDS011;26317;44.894;20.286;2022-08-06T04:52:21;21.98;;;14.82;;
40611;SDS011;26317;44.894;20.286;2022-08-06T04:54:50;21.88;;;15.35;;
40611;SDS011;26317;44.894;20.286;2022-08-06T04:57:19;19.50;;;14.25;;
40611;SDS011;26317;44.894;20.286;2022-08-06T04:59:48;17.05;;;13.60;;
40611;SDS011;26317;44.894;20.286;2022-08-06T05:02:17;16.58;;;13.93;;
40611;SDS011;26317;44.894;20.286;2022-08-06T05:04:49;25.27;;;13.95;;
40611;SDS011;26317;44.894;20.286;2022-08-06T05:07:21;23.23;;;13.80;;
40611;SDS011;26317;44.894;20.286;2022-08-06T05:09:53;30.50;;;14.68;;
40611;SDS011;26317;44.894;20.286;2022-08-06T05:12:24;19.30;;;14.05;;
40611;SDS011;26317;44.894;20.286;2022-08-06T05:14:59;26.40;;;14.70;;
40611;SDS011;26317;44.894;20.286;2022-08-06T05:17:33;20.35;;;14.27;;
40611;SDS011;26317;44.894;20.286;2022-08-06T05:20:12;21.95;;;13.55;;
40611;SDS011;26317;44.894;20.286;2022-08-06T05:22:47;23.30;;;13.52;;
40611;SDS011;26317;44.894;20.286;2022-08-06T05:25:21;30.90;;;15.20;;
40611;SDS011;26317;44.894;20.286;2022-08-06T05:27:51;28.63;;;13.80;;
40611;SDS011;26317;44.894;20.286;2022-08-06T05:30:24;23.45;;;14.18;;
40611;SDS011;26317;44.894;20.286;2022-08-06T05:32:54;21.52;;;13.30;;
40611;SDS011;26317;44.894;20.286;2022-08-06T05:35:26;28.00;;;14.18;;
40611;SDS011;26317;44.894;20.286;2022-08-06T05:37:55;16.33;;;13.27;;
40611;SDS011;26317;44.894;20.286;2022-08-06T05:40:24;19.33;;;13.75;;
40611;SDS011;26317;44.894;20.286;2022-08-06T05:42:59;37.55;;;14.85;;
40611;SDS011;26317;44.894;20.286;2022-08-06T05:45:27;20.02;;;12.82;;
40611;SDS011;26317;44.894;20.286;2022-08-06T05:47:57;23.02;;;12.02;;
40611;SDS011;26317;44.894;20.286;2022-08-06T05:50:34;23.17;;;13.25;;
40611;SDS011;26317;44.894;20.286;2022-08-06T05:53:08;17.98;;;12.25;;
40611;SDS011;26317;44.894;20.286;2022-08-06T05:55:47;15.10;;;12.48;;
40611;SDS011;26317;44.894;20.286;2022-08-06T05:58:21;18.63;;;13.10;;
40611;SDS011;26317;44.894;20.286;2022-08-06T06:00:57;14.20;;;11.70;;
40611;SDS011;26317;44.894;20.286;2022-08-06T06:03:29;21.00;;;11.27;;
40611;SDS011;26317;44.894;20.286;2022-08-06T06:06:01;16.80;;;11.15;;
40611;SDS011;26317;44.894;20.286;2022-08-06T06:08:31;13.52;;;9.73;;
40611;SDS011;26317;44.894;20.286;2022-08-06T06:11:01;10.90;;;9.63;;
40611;SDS011;26317;44.894;20.286;2022-08-06T06:13:33;15.55;;;9.65;;
40611;SDS011;26317;44.894;20.286;2022-08-06T06:16:05;13.32;;;10.05;;
40611;SDS011;26317;44.894;20.286;2022-08-06T06:18:46;18.13;;;11.20;;
40611;SDS011;26317;44.894;20.286;2022-08-06T06:21:30;16.02;;;9.05;;
40611;SDS011;26317;44.894;20.286;2022-08-06T06:24:08;11.93;;;9.48;;
40611;SDS011;26317;44.894;20.286;2022-08-06T06:26:45;13.45;;;10.18;;
40611;SDS011;26317;44.894;20.286;2022-08-06T06:29:22;10.68;;;9.25;;
40611;SDS011;26317;44.894;20.286;2022-08-06T06:32:04;19.60;;;9.65;;
40611;SDS011;26317;44.894;20.286;2022-08-06T06:34:41;9.43;;;8.45;;
40611;SDS011;26317;44.894;20.286;2022-08-06T06:37:23;14.30;;;8.65;;
40611;SDS011;26317;44.894;20.286;2022-08-06T06:40:02;12.27;;;8.68;;
40611;SDS011;26317;44.894;20.286;2022-08-06T06:42:40;13.45;;;8.23;;
40611;SDS011;26317;44.894;20.286;2022-08-06T06:45:18;11.20;;;7.88;;
40611;SDS011;26317;44.894;20.286;2022-08-06T06:47:55;10.95;;;8.43;;
40611;SDS011;26317;44.894;20.286;2022-08-06T06:50:28;14.63;;;8.27;;
40611;SDS011;26317;44.894;20.286;2022-08-06T06:53:03;13.93;;;8.25;;
40611;SDS011;26317;44.894;20.286;2022-08-06T06:55:33;7.38;;;6.65;;
40611;SDS011;26317;44.894;20.286;2022-08-06T06:58:06;10.82;;;7.60;;
40611;SDS011;26317;44.894;20.286;2022-08-06T07:00:38;13.25;;;7.43;;
40611;SDS011;26317;44.894;20.286;2022-08-06T07:03:10;14.52;;;6.85;;
40611;SDS011;26317;44.894;20.286;2022-08-06T07:05:42;9.25;;;6.60;;
40611;SDS011;26317;44.894;20.286;2022-08-06T07:08:16;17.52;;;7.20;;
40611;SDS011;26317;44.894;20.286;2022-08-06T07:10:48;10.98;;;6.63;;
40611;SDS011;26317;44.894;20.286;2022-08-06T07:13:20;7.82;;;6.50;;
40611;SDS011;26317;44.894;20.286;2022-08-06T07:15:51;7.65;;;5.95;;
40611;SDS011;26317;44.894;20.286;2022-08-06T07:18:23;12.98;;;6.05;;
40611;SDS011;26317;44.894;20.286;2022-08-06T07:20:54;7.90;;;6.72;;
40611;SDS011;26317;44.894;20.286;2022-08-06T07:23:26;12.93;;;6.70;;
40611;SDS011;26317;44.894;20.286;2022-08-06T07:25:55;12.55;;;6.10;;
40611;SDS011;26317;44.894;20.286;2022-08-06T07:28:25;11.50;;;6.47;;
40611;SDS011;26317;44.894;20.286;2022-08-06T07:30:56;8.50;;;6.60;;
40611;SDS011;26317;44.894;20.286;2022-08-06T07:33:27;15.25;;;6.43;;
40611;SDS011;26317;44.894;20.286;2022-08-06T07:35:58;10.93;;;5.88;;
40611;SDS011;26317;44.894;20.286;2022-08-06T07:38:30;12.15;;;7.00;;
40611;SDS011;26317;44.894;20.286;2022-08-06T07:41:02;11.23;;;6.88;;
40611;SDS011;26317;44.894;20.286;2022-08-06T07:43:34;12.90;;;7.20;;
40611;SDS011;26317;44.894;20.286;2022-08-06T07:46:08;13.45;;;6.90;;
40611;SDS011;26317;44.894;20.286;2022-08-06T07:48:43;9.77;;;6.82;;
40611;SDS011;26317;44.894;20.286;2022-08-06T07:51:15;8.93;;;7.20;;
40611;SDS011;26317;44.894;20.286;2022-08-06T07:53:50;8.13;;;6.25;;
40611;SDS011;26317;44.894;20.286;2022-08-06T07:56:20;8.15;;;6.65;;
40611;SDS011;26317;44.894;20.286;2022-08-06T07:58:50;9.83;;;6.97;;
40611;SDS011;26317;44.894;20.286;2022-08-06T08:01:21;9.52;;;6.50;;
40611;SDS011;26317;44.894;20.286;2022-08-06T08:06:34;16.60;;;6.85;;
40611;SDS011;26317;44.894;20.286;2022-08-06T08:09:08;11.30;;;5.82;;
40611;SDS011;26317;44.894;20.286;2022-08-06T08:11:43;7.60;;;5.28;;
40611;SDS011;26317;44.894;20.286;2022-08-06T08:14:15;11.10;;;6.65;;
40611;SDS011;26317;44.894;20.286;2022-08-06T08:16:46;10.18;;;6.50;;
40611;SDS011;26317;44.894;20.286;2022-08-06T08:19:19;16.48;;;6.10;;
40611;SDS011;26317;44.894;20.286;2022-08-06T08:21:53;15.10;;;6.25;;
40611;SDS011;26317;44.894;20.286;2022-08-06T08:24:27;8.93;;;5.95;;
40611;SDS011;26317;44.894;20.286;2022-08-06T08:26:58;13.40;;;6.07;;
40611;SDS011;26317;44.894;20.286;2022-08-06T08:29:29;15.35;;;6.28;;
40611;SDS011;26317;44.894;20.286;2022-08-06T08:31:58;11.38;;;6.18;;
40611;SDS011;26317;44.894;20.286;2022-08-06T08:34:27;8.65;;;6.13;;
40611;SDS011;26317;44.894;20.286;2022-08-06T08:36:57;15.32;;;6.53;;
40611;SDS011;26317;44.894;20.286;2022-08-06T08:39:28;6.85;;;5.30;;
40611;SDS011;26317;44.894;20.286;2022-08-06T08:41:58;7.78;;;6.20;;
40611;SDS011;26317;44.894;20.286;2022-08-06T08:44:32;12.80;;;6.32;;
40611;SDS011;26317;44.894;20.286;2022-08-06T08:47:02;6.50;;;4.95;;
40611;SDS011;26317;44.894;20.286;2022-08-06T08:49:35;7.88;;;4.82;;
40611;SDS011;26317;44.894;20.286;2022-08-06T08:52:07;11.68;;;5.45;;
40611;SDS011;26317;44.894;20.286;2022-08-06T08:54:46;8.55;;;5.15;;
40611;SDS011;26317;44.894;20.286;2022-08-06T08:57:18;9.82;;;5.53;;
40611;SDS011;26317;44.894;20.286;2022-08-06T08:59:49;6.13;;;4.45;;
40611;SDS011;26317;44.894;20.286;2022-08-06T09:02:21;5.50;;;4.85;;
40611;SDS011;26317;44.894;20.286;2022-08-06T09:04:52;8.52;;;4.95;;
40611;SDS011;26317;44.894;20.286;2022-08-06T09:07:25;9.75;;;4.57;;
40611;SDS011;26317;44.894;20.286;2022-08-06T09:10:00;5.25;;;4.20;;
40611;SDS011;26317;44.894;20.286;2022-08-06T09:12:29;5.13;;;4.57;;
40611;SDS011;26317;44.894;20.286;2022-08-06T09:14:58;8.00;;;4.13;;
40611;SDS011;26317;44.894;20.286;2022-08-06T09:17:28;15.18;;;4.07;;
40611;SDS011;26317;44.894;20.286;2022-08-06T09:19:57;10.07;;;4.00;;
40611;SDS011;26317;44.894;20.286;2022-08-06T09:22:26;8.20;;;3.90;;
40611;SDS011;26317;44.894;20.286;2022-08-06T09:24:55;6.85;;;3.45;;
40611;SDS011;26317;44.894;20.286;2022-08-06T09:27:31;8.07;;;4.20;;
40611;SDS011;26317;44.894;20.286;2022-08-06T09:30:02;4.82;;;2.90;;
40611;SDS011;26317;44.894;20.286;2022-08-06T09:32:36;5.18;;;3.30;;
40611;SDS011;26317;44.894;20.286;2022-08-06T09:35:18;3.08;;;2.78;;
40611;SDS011;26317;44.894;20.286;2022-08-06T09:37:48;4.65;;;3.00;;
40611;SDS011;26317;44.894;20.286;2022-08-06T09:40:19;10.45;;;4.03;;
40611;SDS011;26317;44.894;20.286;2022-08-06T09:45:22;6.03;;;3.05;;
40611;SDS011;26317;44.894;20.286;2022-08-06T09:48:02;5.05;;;3.17;;
40611;SDS011;26317;44.894;20.286;2022-08-06T09:50:40;10.60;;;3.67;;
40611;SDS011;26317;44.894;20.286;2022-08-06T09:53:10;3.92;;;3.58;;
40611;SDS011;26317;44.894;20.286;2022-08-06T09:55:41;4.68;;;2.92;;
40611;SDS011;26317;44.894;20.286;2022-08-06T09:58:13;6.43;;;3.03;;
40611;SDS011;26317;44.894;20.286;2022-08-06T10:00:43;7.65;;;3.25;;
40611;SDS011;26317;44.894;20.286;2022-08-06T10:03:11;6.90;;;3.50;;
40611;SDS011;26317;44.894;20.286;2022-08-06T10:05:40;3.45;;;2.80;;
40611;SDS011;26317;44.894;20.286;2022-08-06T10:08:10;12.13;;;4.22;;
40611;SDS011;26317;44.894;20.286;2022-08-06T10:10:43;6.80;;;3.30;;
40611;SDS011;26317;44.894;20.286;2022-08-06T10:13:20;4.30;;;3.17;;
40611;SDS011;26317;44.894;20.286;2022-08-06T10:15:52;4.15;;;3.38;;
40611;SDS011;26317;44.894;20.286;2022-08-06T10:21:06;5.35;;;3.17;;
40611;SDS011;26317;44.894;20.286;2022-08-06T10:23:37;4.45;;;3.08;;
40611;SDS011;26317;44.894;20.286;2022-08-06T10:26:08;5.45;;;3.15;;
40611;SDS011;26317;44.894;20.286;2022-08-06T10:28:41;7.20;;;3.42;;
40611;SDS011;26317;44.894;20.286;2022-08-06T10:31:14;7.72;;;3.03;;
40611;SDS011;26317;44.894;20.286;2022-08-06T10:33:44;2.95;;;2.67;;
40611;SDS011;26317;44.894;20.286;2022-08-06T10:36:18;3.97;;;2.75;;
40611;SDS011;26317;44.894;20.286;2022-08-06T10:38:50;3.00;;;2.30;;
40611;SDS011;26317;44.894;20.286;2022-08-06T10:41:22;8.20;;;2.95;;
40611;SDS011;26317;44.894;20.286;2022-08-06T10:43:54;3.67;;;2.88;;
40611;SDS011;26317;44.894;20.286;2022-08-06T10:46:23;8.00;;;2.90;;
40611;SDS011;26317;44.894;20.286;2022-08-06T10:48:53;3.97;;;2.73;;
40611;SDS011;26317;44.894;20.286;2022-08-06T10:51:22;4.90;;;3.13;;
40611;SDS011;26317;44.894;20.286;2022-08-06T10:53:52;3.33;;;2.83;;
40611;SDS011;26317;44.894;20.286;2022-08-06T10:56:22;2.63;;;2.28;;
40611;SDS011;26317;44.894;20.286;2022-08-06T10:58:56;8.18;;;3.35;;
40611;SDS011;26317;44.894;20.286;2022-08-06T11:01:27;4.03;;;2.67;;
40611;SDS011;26317;44.894;20.286;2022-08-06T11:04:06;5.85;;;2.97;;
40611;SDS011;26317;44.894;20.286;2022-08-06T11:06:51;7.15;;;2.60;;
40611;SDS011;26317;44.894;20.286;2022-08-06T11:09:53;5.90;;;2.83;;
40611;SDS011;26317;44.894;20.286;2022-08-06T11:12:34;2.58;;;2.33;;
40611;SDS011;26317;44.894;20.286;2022-08-06T11:15:17;2.92;;;2.13;;
40611;SDS011;26317;44.894;20.286;2022-08-06T11:17:48;6.38;;;2.97;;
40611;SDS011;26317;44.894;20.286;2022-08-06T11:23:20;6.50;;;2.55;;
40611;SDS011;26317;44.894;20.286;2022-08-06T11:25:52;3.42;;;2.60;;
40611;SDS011;26317;44.894;20.286;2022-08-06T11:34:19;23.13;;;13.82;;
40611;SDS011;26317;44.894;20.286;2022-08-06T11:36:50;26.80;;;24.08;;
40611;SDS011;26317;44.894;20.286;2022-08-06T11:39:21;44.60;;;37.00;;
40611;SDS011;26317;44.894;20.286;2022-08-06T11:41:56;8.60;;;7.80;;
40611;SDS011;26317;44.894;20.286;2022-08-06T11:44:30;35.80;;;30.08;;
40611;SDS011;26317;44.894;20.286;2022-08-06T11:47:09;22.13;;;17.17;;
40611;SDS011;26317;44.894;20.286;2022-08-06T11:49:42;31.33;;;27.45;;
40611;SDS011;26317;44.894;20.286;2022-08-06T11:55:09;14.98;;;12.75;;
40611;SDS011;26317;44.894;20.286;2022-08-06T11:57:42;13.05;;;7.30;;
40611;SDS011;26317;44.894;20.286;2022-08-06T12:00:11;8.85;;;7.93;;
40611;SDS011;26317;44.894;20.286;2022-08-06T12:02:55;5.78;;;2.55;;
40611;SDS011;26317;44.894;20.286;2022-08-06T12:05:34;6.47;;;2.88;;
40611;SDS011;26317;44.894;20.286;2022-08-06T12:08:18;5.00;;;2.60;;
40611;SDS011;26317;44.894;20.286;2022-08-06T12:13:47;3.65;;;2.90;;
40611;SDS011;26317;44.894;20.286;2022-08-06T12:16:28;4.55;;;3.42;;
40611;SDS011;26317;44.894;20.286;2022-08-06T12:19:02;4.50;;;2.58;;
40611;SDS011;26317;44.894;20.286;2022-08-06T12:21:32;2.47;;;2.13;;
40611;SDS011;26317;44.894;20.286;2022-08-06T12:24:04;6.63;;;2.90;;
40611;SDS011;26317;44.894;20.286;2022-08-06T12:29:04;4.20;;;3.15;;
40611;SDS011;26317;44.894;20.286;2022-08-06T12:31:35;2.53;;;1.77;;
40611;SDS011;26317;44.894;20.286;2022-08-06T12:34:08;2.80;;;2.60;;
40611;SDS011;26317;44.894;20.286;2022-08-06T12:36:50;3.15;;;2.78;;
40611;SDS011;26317;44.894;20.286;2022-08-06T12:39:19;4.90;;;2.58;;
40611;SDS011;26317;44.894;20.286;2022-08-06T12:42:20;9.77;;;2.57;;
40611;SDS011;26317;44.894;20.286;2022-08-06T12:44:50;8.38;;;3.20;;
40611;SDS011;26317;44.894;20.286;2022-08-06T12:47:19;5.90;;;3.75;;
40611;SDS011;26317;44.894;20.286;2022-08-06T12:49:50;4.25;;;2.72;;
40611;SDS011;26317;44.894;20.286;2022-08-06T12:52:20;3.92;;;2.10;;
40611;SDS011;26317;44.894;20.286;2022-08-06T12:54:49;2.35;;;2.15;;
40611;SDS011;26317;44.894;20.286;2022-08-06T12:57:19;4.55;;;3.08;;
40611;SDS011;26317;44.894;20.286;2022-08-06T13:02:18;5.88;;;2.65;;
40611;SDS011;26317;44.894;20.286;2022-08-06T13:04:52;5.43;;;2.65;;
40611;SDS011;26317;44.894;20.286;2022-08-06T13:07:23;3.03;;;2.22;;
40611;SDS011;26317;44.894;20.286;2022-08-06T13:09:52;5.25;;;2.60;;
40611;SDS011;26317;44.894;20.286;2022-08-06T13:12:21;4.68;;;2.28;;
40611;SDS011;26317;44.894;20.286;2022-08-06T13:14:50;6.57;;;2.65;;
40611;SDS011;26317;44.894;20.286;2022-08-06T13:17:21;5.75;;;2.78;;
40611;SDS011;26317;44.894;20.286;2022-08-06T13:19:55;3.38;;;1.98;;
40611;SDS011;26317;44.894;20.286;2022-08-06T13:22:25;3.92;;;2.30;;
40611;SDS011;26317;44.894;20.286;2022-08-06T13:27:38;5.70;;;2.50;;
40611;SDS011;26317;44.894;20.286;2022-08-06T13:30:08;5.88;;;2.17;;
40611;SDS011;26317;44.894;20.286;2022-08-06T13:32:38;4.88;;;2.42;;
40611;SDS011;26317;44.894;20.286;2022-08-06T13:35:11;3.53;;;2.35;;
40611;SDS011;26317;44.894;20.286;2022-08-06T13:37:41;4.00;;;1.95;;
40611;SDS011;26317;44.894;20.286;2022-08-06T13:40:13;5.57;;;2.42;;
40611;SDS011;26317;44.894;20.286;2022-08-06T13:42:49;4.77;;;2.33;;
40611;SDS011;26317;44.894;20.286;2022-08-06T13:45:20;7.00;;;2.45;;
40611;SDS011;26317;44.894;20.286;2022-08-06T13:47:49;4.18;;;2.05;;
40611;SDS011;26317;44.894;20.286;2022-08-06T13:50:21;7.88;;;2.55;;
40611;SDS011;26317;44.894;20.286;2022-08-06T13:52:50;2.88;;;2.08;;
40611;SDS011;26317;44.894;20.286;2022-08-06T13:55:21;2.80;;;2.03;;
40611;SDS011;26317;44.894;20.286;2022-08-06T13:57:51;6.82;;;2.55;;
40611;SDS011;26317;44.894;20.286;2022-08-06T14:00:20;4.45;;;2.28;;
40611;SDS011;26317;44.894;20.286;2022-08-06T14:02:50;5.75;;;2.40;;
40611;SDS011;26317;44.894;20.286;2022-08-06T14:05:21;3.78;;;1.95;;
40611;SDS011;26317;44.894;20.286;2022-08-06T14:07:50;2.08;;;1.98;;
40611;SDS011;26317;44.894;20.286;2022-08-06T14:10:19;4.13;;;2.13;;
40611;SDS011;26317;44.894;20.286;2022-08-06T14:12:48;4.25;;;2.17;;
40611;SDS011;26317;44.894;20.286;2022-08-06T14:15:30;4.47;;;2.25;;
40611;SDS011;26317;44.894;20.286;2022-08-06T14:17:59;3.38;;;2.55;;
40611;SDS011;26317;44.894;20.286;2022-08-06T14:20:31;8.23;;;2.40;;
40611;SDS011;26317;44.894;20.286;2022-08-06T14:23:00;3.15;;;2.22;;
40611;SDS011;26317;44.894;20.286;2022-08-06T14:25:29;6.32;;;2.55;;
40611;SDS011;26317;44.894;20.286;2022-08-06T14:27:58;2.55;;;2.28;;
40611;SDS011;26317;44.894;20.286;2022-08-06T14:30:27;2.30;;;2.10;;
40611;SDS011;26317;44.894;20.286;2022-08-06T14:32:56;4.07;;;2.42;;
40611;SDS011;26317;44.894;20.286;2022-08-06T14:35:26;4.97;;;2.45;;
40611;SDS011;26317;44.894;20.286;2022-08-06T14:37:57;3.35;;;1.73;;
40611;SDS011;26317;44.894;20.286;2022-08-06T14:40:26;5.97;;;2.05;;
40611;SDS011;26317;44.894;20.286;2022-08-06T14:43:07;4.85;;;2.00;;
40611;SDS011;26317;44.894;20.286;2022-08-06T14:45:49;10.25;;;2.20;;
40611;SDS011;26317;44.894;20.286;2022-08-06T14:48:18;6.13;;;2.72;;
40611;SDS011;26317;44.894;20.286;2022-08-06T14:50:46;5.63;;;2.63;;
40611;SDS011;26317;44.894;20.286;2022-08-06T14:53:18;5.57;;;1.98;;
40611;SDS011;26317;44.894;20.286;2022-08-06T14:55:47;2.55;;;2.05;;
40611;SDS011;26317;44.894;20.286;2022-08-06T14:58:16;4.63;;;1.83;;
40611;SDS011;26317;44.894;20.286;2022-08-06T15:00:45;3.35;;;2.80;;
40611;SDS011;26317;44.894;20.286;2022-08-06T15:03:16;5.60;;;2.58;;
40611;SDS011;26317;44.894;20.286;2022-08-06T15:05:46;3.00;;;2.70;;
40611;SDS011;26317;44.894;20.286;2022-08-06T15:08:15;3.17;;;2.80;;
40611;SDS011;26317;44.894;20.286;2022-08-06T15:10:46;3.83;;;2.17;;
40611;SDS011;26317;44.894;20.286;2022-08-06T15:13:15;4.40;;;1.77;;
40611;SDS011;26317;44.894;20.286;2022-08-06T15:15:44;8.68;;;2.13;;
40611;SDS011;26317;44.894;20.286;2022-08-06T15:18:14;5.30;;;4.45;;
40611;SDS011;26317;44.894;20.286;2022-08-06T15:20:43;3.53;;;1.98;;
40611;SDS011;26317;44.894;20.286;2022-08-06T15:23:13;5.50;;;1.90;;
40611;SDS011;26317;44.894;20.286;2022-08-06T15:25:44;2.00;;;1.90;;
40611;SDS011;26317;44.894;20.286;2022-08-06T15:28:14;3.17;;;2.13;;
40611;SDS011;26317;44.894;20.286;2022-08-06T15:30:43;2.33;;;1.70;;